sensor_id;sensor_type;location;lat;lon;timestamp;pressure;altitude;pressure_sealevel;temperature;humidity
35694;BME280;21812;55.536;37.664;2023-06-04T00:00:42;99986.09;;;7.86;70.40
35694;BME280;21812;55.536;37.664;2023-06-04T00:03:07;99990.75;;;7.92;70.36
35694;BME280;21812;55.536;37.664;2023-06-04T00:05:33;99981.78;;;7.93;69.74
35694;BME280;21812;55.536;37.664;2023-06-04T00:07:59;99980.94;;;7.93;69.80
35694;BME280;21812;55.536;37.664;2023-06-04T00:10:24;99976.28;;;7.95;70.00
35694;BME280;21812;55.536;37.664;2023-06-04T00:12:50;99975.63;;;7.93;69.83
35694;BME280;21812;55.536;37.664;2023-06-04T00:15:16;99986.94;;;7.87;70.77
35694;BME280;21812;55.536;37.664;2023-06-04T00:17:42;99992.91;;;7.80;70.39
35694;BME280;21812;55.536;37.664;2023-06-04T00:20:08;99991.06;;;7.73;70.90
35694;BME280;21812;55.536;37.664;2023-06-04T00:22:34;99993.91;;;7.71;71.95
35694;BME280;21812;55.536;37.664;2023-06-04T00:25:00;99993.91;;;7.71;71.59
35694;BME280;21812;55.536;37.664;2023-06-04T00:27:25;100000.72;;;7.66;71.62
35694;BME280;21812;55.536;37.664;2023-06-04T00:29:51;100001.53;;;7.66;71.30
35694;BME280;21812;55.536;37.664;2023-06-04T00:32:17;100004.03;;;7.68;71.08
35694;BME280;21812;55.536;37.664;2023-06-04T00:34:43;100004.03;;;7.68;70.71
35694;BME280;21812;55.536;37.664;2023-06-04T00:37:08;100000.22;;;7.62;70.77
35694;BME280;21812;55.536;37.664;2023-06-04T00:39:34;100003.34;;;7.57;71.20
35694;BME280;21812;55.536;37.664;2023-06-04T00:42:00;100008.50;;;7.51;71.14
35694;BME280;21812;55.536;37.664;2023-06-04T00:44:26;100011.50;;;7.56;71.24
35694;BME280;21812;55.536;37.664;2023-06-04T00:46:52;100009.50;;;7.58;70.89
35694;BME280;21812;55.536;37.664;2023-06-04T00:49:21;100013.16;;;7.57;70.88
35694;BME280;21812;55.536;37.664;2023-06-04T00:51:48;100012.13;;;7.50;71.15
35694;BME280;21812;55.536;37.664;2023-06-04T00:54:15;99994.19;;;7.35;71.26
35694;BME280;21812;55.536;37.664;2023-06-04T00:56:41;100022.91;;;7.48;71.10
35694;BME280;21812;55.536;37.664;2023-06-04T00:59:08;100016.78;;;7.48;70.96
35694;BME280;21812;55.536;37.664;2023-06-04T01:02:06;100018.13;;;7.52;71.28
35694;BME280;21812;55.536;37.664;2023-06-04T01:04:37;100014.47;;;7.53;70.72
35694;BME280;21812;55.536;37.664;2023-06-04T01:07:07;100019.13;;;7.51;70.46
35694;BME280;21812;55.536;37.664;2023-06-04T01:09:35;100022.28;;;7.54;70.47
35694;BME280;21812;55.536;37.664;2023-06-04T01:12:06;100034.09;;;7.60;70.26
35694;BME280;21812;55.536;37.664;2023-06-04T01:14:32;100034.91;;;7.52;69.99
35694;BME280;21812;55.536;37.664;2023-06-04T01:17:07;100032.41;;;7.51;70.51
35694;BME280;21812;55.536;37.664;2023-06-04T01:25:32;100030.44;;;7.61;70.77
35694;BME280;21812;55.536;37.664;2023-06-04T01:27:59;100036.25;;;7.56;70.46
35694;BME280;21812;55.536;37.664;2023-06-04T01:30:34;100043.72;;;7.61;70.14
35694;BME280;21812;55.536;37.664;2023-06-04T01:33:01;100034.88;;;7.44;69.95
35694;BME280;21812;55.536;37.664;2023-06-04T01:35:28;100041.16;;;7.35;70.58
35694;BME280;21812;55.536;37.664;2023-06-04T01:37:56;100044.84;;;7.42;70.23
35694;BME280;21812;55.536;37.664;2023-06-04T01:40:23;100050.34;;;7.49;69.48
35694;BME280;21812;55.536;37.664;2023-06-04T01:42:49;100050.00;;;7.52;69.09
35694;BME280;21812;55.536;37.664;2023-06-04T01:45:15;100060.63;;;7.52;69.45
35694;BME280;21812;55.536;37.664;2023-06-04T01:47:41;100059.97;;;7.50;69.30
35694;BME280;21812;55.536;37.664;2023-06-04T01:50:07;100069.94;;;7.48;69.13
35694;BME280;21812;55.536;37.664;2023-06-04T01:52:37;100057.28;;;7.41;69.01
35694;BME280;21812;55.536;37.664;2023-06-04T01:55:07;100071.25;;;7.52;68.96
35694;BME280;21812;55.536;37.664;2023-06-04T01:57:34;100072.28;;;7.51;69.41
35694;BME280;21812;55.536;37.664;2023-06-04T02:00:02;100072.94;;;7.53;69.10
35694;BME280;21812;55.536;37.664;2023-06-04T02:02:40;100076.75;;;7.50;69.00
35694;BME280;21812;55.536;37.664;2023-06-04T02:05:08;100070.28;;;7.44;68.94
35694;BME280;21812;55.536;37.664;2023-06-04T02:07:38;100078.56;;;7.50;69.18
35694;BME280;21812;55.536;37.664;2023-06-04T02:10:09;100083.88;;;7.50;68.63
35694;BME280;21812;55.536;37.664;2023-06-04T02:12:37;100080.72;;;7.46;68.69
35694;BME280;21812;55.536;37.664;2023-06-04T02:15:04;100083.72;;;7.43;68.87
35694;BME280;21812;55.536;37.664;2023-06-04T02:17:33;100076.19;;;7.38;69.11
35694;BME280;21812;55.536;37.664;2023-06-04T02:20:03;100076.84;;;7.32;69.25
35694;BME280;21812;55.536;37.664;2023-06-04T02:22:30;100086.50;;;7.33;69.67
35694;BME280;21812;55.536;37.664;2023-06-04T02:24:56;100085.16;;;7.29;69.91
35694;BME280;21812;55.536;37.664;2023-06-04T02:27:21;100093.47;;;7.34;69.85
35694;BME280;21812;55.536;37.664;2023-06-04T02:29:47;100089.16;;;7.33;69.76
35694;BME280;21812;55.536;37.664;2023-06-04T02:32:13;100090.66;;;7.36;69.67
35694;BME280;21812;55.536;37.664;2023-06-04T02:34:39;100105.47;;;7.47;70.03
35694;BME280;21812;55.536;37.664;2023-06-04T02:37:04;100105.13;;;7.50;69.76
35694;BME280;21812;55.536;37.664;2023-06-04T02:39:31;100104.81;;;7.53;69.81
35694;BME280;21812;55.536;37.664;2023-06-04T02:41:56;100117.47;;;7.59;69.67
35694;BME280;21812;55.536;37.664;2023-06-04T02:44:22;100114.81;;;7.59;69.68
35694;BME280;21812;55.536;37.664;2023-06-04T02:46:48;100118.81;;;7.63;69.69
35694;BME280;21812;55.536;37.664;2023-06-04T02:49:14;100122.97;;;7.66;69.31
35694;BME280;21812;55.536;37.664;2023-06-04T02:51:43;100125.47;;;7.67;69.66
35694;BME280;21812;55.536;37.664;2023-06-04T02:54:09;100128.81;;;7.69;69.56
35694;BME280;21812;55.536;37.664;2023-06-04T02:56:36;100136.81;;;7.77;69.40
35694;BME280;21812;55.536;37.664;2023-06-04T02:59:03;100136.66;;;7.79;69.08
35694;BME280;21812;55.536;37.664;2023-06-04T03:01:29;100139.47;;;7.77;69.46
35694;BME280;21812;55.536;37.664;2023-06-04T03:03:55;100145.13;;;7.82;69.37
35694;BME280;21812;55.536;37.664;2023-06-04T03:06:23;100144.28;;;7.82;69.31
35694;BME280;21812;55.536;37.664;2023-06-04T03:08:49;100141.78;;;7.80;69.63
35694;BME280;21812;55.536;37.664;2023-06-04T03:11:17;100146.28;;;7.80;69.86
35694;BME280;21812;55.536;37.664;2023-06-04T03:13:44;100154.75;;;7.83;69.50
35694;BME280;21812;55.536;37.664;2023-06-04T03:16:10;100151.13;;;7.85;69.58
35694;BME280;21812;55.536;37.664;2023-06-04T03:18:36;100153.81;;;7.93;69.85
35694;BME280;21812;55.536;37.664;2023-06-04T03:21:04;100163.41;;;7.94;69.49
35694;BME280;21812;55.536;37.664;2023-06-04T03:23:31;100171.09;;;7.97;69.38
35694;BME280;21812;55.536;37.664;2023-06-04T03:25:57;100177.75;;;8.01;69.56
35694;BME280;21812;55.536;37.664;2023-06-04T03:28:23;100179.25;;;8.03;69.46
35694;BME280;21812;55.536;37.664;2023-06-04T03:30:49;100177.13;;;8.15;69.35
35694;BME280;21812;55.536;37.664;2023-06-04T03:33:17;100184.44;;;8.21;69.18
35694;BME280;21812;55.536;37.664;2023-06-04T03:35:42;100181.13;;;8.19;68.90
35694;BME280;21812;55.536;37.664;2023-06-04T03:38:08;100183.78;;;8.19;69.01
35694;BME280;21812;55.536;37.664;2023-06-04T03:40:34;100182.28;;;8.17;68.66
35694;BME280;21812;55.536;37.664;2023-06-04T03:43:02;100189.09;;;8.19;69.15
35694;BME280;21812;55.536;37.664;2023-06-04T03:45:30;100188.94;;;8.29;69.10
35694;BME280;21812;55.536;37.664;2023-06-04T03:47:56;100188.13;;;8.29;69.06
35694;BME280;21812;55.536;37.664;2023-06-04T03:50:22;100194.63;;;8.34;68.75
35694;BME280;21812;55.536;37.664;2023-06-04T03:52:50;100188.28;;;8.35;68.84
35694;BME280;21812;55.536;37.664;2023-06-04T03:55:18;100190.13;;;8.35;68.65
35694;BME280;21812;55.536;37.664;2023-06-04T03:57:46;100192.13;;;8.41;68.82
35694;BME280;21812;55.536;37.664;2023-06-04T04:00:14;100195.66;;;8.41;68.65
35694;BME280;21812;55.536;37.664;2023-06-04T04:02:41;100199.81;;;8.44;68.79
35694;BME280;21812;55.536;37.664;2023-06-04T04:05:11;100203.81;;;8.48;68.90
35694;BME280;21812;55.536;37.664;2023-06-04T04:07:39;100213.78;;;8.54;69.07
35694;BME280;21812;55.536;37.664;2023-06-04T04:10:06;100217.47;;;8.61;68.68
35694;BME280;21812;55.536;37.664;2023-06-04T04:12:31;100213.47;;;8.66;68.61
35694;BME280;21812;55.536;37.664;2023-06-04T04:14:57;100210.84;;;8.74;68.57
35694;BME280;21812;55.536;37.664;2023-06-04T04:17:24;100208.66;;;8.77;68.47
35694;BME280;21812;55.536;37.664;2023-06-04T04:19:50;100207.16;;;8.83;68.46
35694;BME280;21812;55.536;37.664;2023-06-04T04:22:16;100217.81;;;8.83;68.36
35694;BME280;21812;55.536;37.664;2023-06-04T04:24:47;100212.00;;;8.88;68.15
35694;BME280;21812;55.536;37.664;2023-06-04T04:27:12;100219.63;;;8.91;68.27
35694;BME280;21812;55.536;37.664;2023-06-04T04:29:39;100221.97;;;9.02;68.42
35694;BME280;21812;55.536;37.664;2023-06-04T04:32:08;100218.16;;;9.05;68.12
35694;BME280;21812;55.536;37.664;2023-06-04T04:34:38;100217.63;;;9.09;68.19
35694;BME280;21812;55.536;37.664;2023-06-04T04:37:17;100221.78;;;9.12;67.93
35694;BME280;21812;55.536;37.664;2023-06-04T04:39:47;100216.44;;;9.12;67.21
35694;BME280;21812;55.536;37.664;2023-06-04T04:42:15;100219.94;;;9.20;67.24
35694;BME280;21812;55.536;37.664;2023-06-04T04:44:41;100226.09;;;9.29;67.11
35694;BME280;21812;55.536;37.664;2023-06-04T04:47:06;100224.41;;;9.36;67.32
35694;BME280;21812;55.536;37.664;2023-06-04T04:49:32;100229.41;;;9.39;67.09
35694;BME280;21812;55.536;37.664;2023-06-04T04:51:58;100217.56;;;9.42;67.00
35694;BME280;21812;55.536;37.664;2023-06-04T04:54:24;100220.22;;;9.50;66.54
35694;BME280;21812;55.536;37.664;2023-06-04T04:56:50;100222.38;;;9.55;66.58
35694;BME280;21812;55.536;37.664;2023-06-04T04:59:15;100224.72;;;9.58;66.38
35694;BME280;21812;55.536;37.664;2023-06-04T05:01:41;100233.53;;;9.58;65.49
35694;BME280;21812;55.536;37.664;2023-06-04T05:04:07;100241.00;;;9.63;65.50
35694;BME280;21812;55.536;37.664;2023-06-04T05:06:33;100236.16;;;9.67;65.48
35694;BME280;21812;55.536;37.664;2023-06-04T05:08:59;100244.31;;;9.65;64.66
35694;BME280;21812;55.536;37.664;2023-06-04T05:11:25;100240.66;;;9.66;65.03
35694;BME280;21812;55.536;37.664;2023-06-04T05:13:51;100236.66;;;9.70;64.97
35694;BME280;21812;55.536;37.664;2023-06-04T05:16:17;100231.00;;;9.73;64.60
35694;BME280;21812;55.536;37.664;2023-06-04T05:18:46;100241.66;;;9.73;64.64
35694;BME280;21812;55.536;37.664;2023-06-04T05:21:17;100224.97;;;9.79;64.86
35694;BME280;21812;55.536;37.664;2023-06-04T05:23:49;100233.28;;;9.85;64.68
35694;BME280;21812;55.536;37.664;2023-06-04T05:26:16;100236.25;;;9.90;64.53
35694;BME280;21812;55.536;37.664;2023-06-04T05:28:42;100226.06;;;9.93;64.72
35694;BME280;21812;55.536;37.664;2023-06-04T05:31:10;100220.94;;;9.92;64.14
35694;BME280;21812;55.536;37.664;2023-06-04T05:33:39;100231.53;;;10.00;64.64
35694;BME280;21812;55.536;37.664;2023-06-04T05:36:09;100225.03;;;10.03;64.62
35694;BME280;21812;55.536;37.664;2023-06-04T05:38:41;100227.19;;;10.07;64.12
35694;BME280;21812;55.536;37.664;2023-06-04T05:41:12;100239.88;;;10.05;64.02
35694;BME280;21812;55.536;37.664;2023-06-04T05:43:39;100230.50;;;10.09;63.73
35694;BME280;21812;55.536;37.664;2023-06-04T05:46:07;100230.63;;;10.16;63.54
35694;BME280;21812;55.536;37.664;2023-06-04T05:48:34;100234.09;;;10.25;63.73
35694;BME280;21812;55.536;37.664;2023-06-04T05:51:00;100229.75;;;10.32;63.77
35694;BME280;21812;55.536;37.664;2023-06-04T05:53:26;100235.03;;;10.40;63.51
35694;BME280;21812;55.536;37.664;2023-06-04T05:55:52;100236.50;;;10.43;62.80
35694;BME280;21812;55.536;37.664;2023-06-04T05:58:17;100240.31;;;10.48;62.95
35694;BME280;21812;55.536;37.664;2023-06-04T06:00:44;100241.28;;;10.55;62.41
35694;BME280;21812;55.536;37.664;2023-06-04T06:03:10;100231.13;;;10.51;61.43
35694;BME280;21812;55.536;37.664;2023-06-04T06:05:42;100236.94;;;10.54;60.19
35694;BME280;21812;55.536;37.664;2023-06-04T06:08:08;100245.06;;;10.61;60.00
35694;BME280;21812;55.536;37.664;2023-06-04T06:10:34;100243.53;;;10.67;60.73
35694;BME280;21812;55.536;37.664;2023-06-04T06:13:00;100244.59;;;10.81;60.78
35694;BME280;21812;55.536;37.664;2023-06-04T06:15:27;100240.72;;;10.83;60.09
35694;BME280;21812;55.536;37.664;2023-06-04T06:17:54;100236.41;;;10.82;60.23
35694;BME280;21812;55.536;37.664;2023-06-04T06:20:20;100244.31;;;10.99;58.97
35694;BME280;21812;55.536;37.664;2023-06-04T06:22:48;100240.19;;;11.11;59.97
35694;BME280;21812;55.536;37.664;2023-06-04T06:25:15;100240.75;;;11.21;59.35
35694;BME280;21812;55.536;37.664;2023-06-04T06:27:48;100246.69;;;11.31;57.79
35694;BME280;21812;55.536;37.664;2023-06-04T06:30:15;100240.94;;;11.34;58.23
35694;BME280;21812;55.536;37.664;2023-06-04T06:32:41;100244.47;;;11.35;57.98
35694;BME280;21812;55.536;37.664;2023-06-04T06:35:08;100253.31;;;11.35;57.27
35694;BME280;21812;55.536;37.664;2023-06-04T06:37:34;100249.91;;;11.42;56.64
35694;BME280;21812;55.536;37.664;2023-06-04T06:39:59;100237.81;;;11.46;55.92
35694;BME280;21812;55.536;37.664;2023-06-04T06:42:25;100236.91;;;11.53;56.56
35694;BME280;21812;55.536;37.664;2023-06-04T06:44:52;100235.28;;;11.67;57.13
35694;BME280;21812;55.536;37.664;2023-06-04T06:47:18;100232.31;;;11.77;57.23
35694;BME280;21812;55.536;37.664;2023-06-04T06:49:43;100234.25;;;11.83;55.26
35694;BME280;21812;55.536;37.664;2023-06-04T06:52:09;100245.91;;;11.90;54.78
35694;BME280;21812;55.536;37.664;2023-06-04T06:54:35;100231.69;;;11.90;53.95
35694;BME280;21812;55.536;37.664;2023-06-04T06:57:01;100234.91;;;12.00;54.46
35694;BME280;21812;55.536;37.664;2023-06-04T06:59:28;100243.47;;;12.10;54.60
35694;BME280;21812;55.536;37.664;2023-06-04T07:01:54;100247.41;;;12.15;54.50
35694;BME280;21812;55.536;37.664;2023-06-04T07:04:20;100258.13;;;12.15;53.41
35694;BME280;21812;55.536;37.664;2023-06-04T07:06:46;100249.72;;;12.18;53.86
35694;BME280;21812;55.536;37.664;2023-06-04T07:09:12;100245.78;;;12.13;52.95
35694;BME280;21812;55.536;37.664;2023-06-04T07:11:38;100245.00;;;12.20;52.74
35694;BME280;21812;55.536;37.664;2023-06-04T07:14:04;100242.53;;;12.18;53.18
35694;BME280;21812;55.536;37.664;2023-06-04T07:16:30;100249.47;;;12.12;53.48
35694;BME280;21812;55.536;37.664;2023-06-04T07:18:55;100251.31;;;12.12;53.50
35694;BME280;21812;55.536;37.664;2023-06-04T07:21:21;100244.00;;;12.21;53.89
35694;BME280;21812;55.536;37.664;2023-06-04T07:23:52;100250.06;;;12.29;53.01
35694;BME280;21812;55.536;37.664;2023-06-04T07:26:18;100241.41;;;12.27;51.51
35694;BME280;21812;55.536;37.664;2023-06-04T07:28:44;100247.41;;;12.29;52.40
35694;BME280;21812;55.536;37.664;2023-06-04T07:31:10;100256.81;;;12.25;50.91
35694;BME280;21812;55.536;37.664;2023-06-04T07:33:36;100249.72;;;12.32;50.95
35694;BME280;21812;55.536;37.664;2023-06-04T07:36:15;100239.06;;;12.39;50.65
35694;BME280;21812;55.536;37.664;2023-06-04T07:38:42;100253.31;;;12.61;50.74
35694;BME280;21812;55.536;37.664;2023-06-04T07:41:08;100244.63;;;12.59;49.82
35694;BME280;21812;55.536;37.664;2023-06-04T07:43:34;100244.06;;;12.64;50.07
35694;BME280;21812;55.536;37.664;2023-06-04T07:46:04;100248.81;;;12.83;50.23
35694;BME280;21812;55.536;37.664;2023-06-04T07:48:30;100249.44;;;12.85;50.25
35694;BME280;21812;55.536;37.664;2023-06-04T07:50:57;100249.75;;;12.76;49.12
35694;BME280;21812;55.536;37.664;2023-06-04T07:53:24;100255.94;;;12.76;48.57
35694;BME280;21812;55.536;37.664;2023-06-04T07:55:49;100250.63;;;12.83;47.18
35694;BME280;21812;55.536;37.664;2023-06-04T07:58:15;100258.94;;;12.88;47.35
35694;BME280;21812;55.536;37.664;2023-06-04T08:00:41;100241.28;;;13.00;45.35
35694;BME280;21812;55.536;37.664;2023-06-04T08:03:06;100247.09;;;13.04;45.73
35694;BME280;21812;55.536;37.664;2023-06-04T08:05:32;100256.44;;;13.08;46.54
35694;BME280;21812;55.536;37.664;2023-06-04T08:07:59;100253.06;;;12.99;46.84
35694;BME280;21812;55.536;37.664;2023-06-04T08:10:24;100245.91;;;13.06;46.61
35694;BME280;21812;55.536;37.664;2023-06-04T08:12:50;100252.66;;;13.24;44.80
35694;BME280;21812;55.536;37.664;2023-06-04T08:15:16;100238.75;;;13.42;45.55
35694;BME280;21812;55.536;37.664;2023-06-04T08:18:01;100251.34;;;13.69;43.46
35694;BME280;21812;55.536;37.664;2023-06-04T08:20:44;100248.72;;;13.83;41.79
35694;BME280;21812;55.536;37.664;2023-06-04T08:23:29;100258.84;;;13.81;42.31
35694;BME280;21812;55.536;37.664;2023-06-04T08:26:15;100260.00;;;13.72;41.50
35694;BME280;21812;55.536;37.664;2023-06-04T08:28:48;100257.25;;;13.58;42.03
35694;BME280;21812;55.536;37.664;2023-06-04T08:31:16;100254.72;;;13.50;42.39
35694;BME280;21812;55.536;37.664;2023-06-04T08:33:53;100257.34;;;13.43;42.27
35694;BME280;21812;55.536;37.664;2023-06-04T08:36:20;100252.44;;;13.47;42.38
35694;BME280;21812;55.536;37.664;2023-06-04T08:38:46;100247.53;;;13.57;43.05
35694;BME280;21812;55.536;37.664;2023-06-04T08:41:34;100245.00;;;13.84;42.70
35694;BME280;21812;55.536;37.664;2023-06-04T08:44:05;100238.22;;;13.88;42.07
35694;BME280;21812;55.536;37.664;2023-06-04T08:46:32;100252.16;;;14.12;42.82
35694;BME280;21812;55.536;37.664;2023-06-04T08:49:00;100269.28;;;14.04;41.77
35694;BME280;21812;55.536;37.664;2023-06-04T08:51:31;100259.28;;;13.91;41.65
35694;BME280;21812;55.536;37.664;2023-06-04T08:53:59;100251.41;;;13.83;41.58
35694;BME280;21812;55.536;37.664;2023-06-04T08:56:25;100266.00;;;13.74;41.97
35694;BME280;21812;55.536;37.664;2023-06-04T08:58:56;100263.72;;;13.71;41.25
35694;BME280;21812;55.536;37.664;2023-06-04T09:01:25;100265.38;;;13.72;41.48
35694;BME280;21812;55.536;37.664;2023-06-04T09:03:51;100268.53;;;13.82;42.25
35694;BME280;21812;55.536;37.664;2023-06-04T09:06:17;100260.09;;;13.85;41.15
35694;BME280;21812;55.536;37.664;2023-06-04T09:08:43;100270.81;;;13.85;41.12
35694;BME280;21812;55.536;37.664;2023-06-04T09:11:13;100261.16;;;13.97;42.00
35694;BME280;21812;55.536;37.664;2023-06-04T09:13:43;100258.03;;;13.87;41.50
35694;BME280;21812;55.536;37.664;2023-06-04T09:16:12;100261.34;;;13.89;41.68
35694;BME280;21812;55.536;37.664;2023-06-04T09:18:38;100256.47;;;13.99;42.39
35694;BME280;21812;55.536;37.664;2023-06-04T09:21:06;100262.00;;;14.39;40.41
35694;BME280;21812;55.536;37.664;2023-06-04T09:23:35;100276.78;;;14.83;40.72
35694;BME280;21812;55.536;37.664;2023-06-04T09:26:08;100255.50;;;15.15;39.57
35694;BME280;21812;55.536;37.664;2023-06-04T09:28:34;100264.84;;;15.19;39.30
35694;BME280;21812;55.536;37.664;2023-06-04T09:31:00;100264.16;;;14.91;38.51
35694;BME280;21812;55.536;37.664;2023-06-04T09:33:28;100262.94;;;14.80;39.20
35694;BME280;21812;55.536;37.664;2023-06-04T09:35:55;100263.75;;;14.80;40.45
35694;BME280;21812;55.536;37.664;2023-06-04T09:38:21;100274.72;;;14.92;40.44
35694;BME280;21812;55.536;37.664;2023-06-04T09:40:48;100256.94;;;14.91;39.70
35694;BME280;21812;55.536;37.664;2023-06-04T09:43:22;100262.13;;;15.06;39.67
35694;BME280;21812;55.536;37.664;2023-06-04T09:45:49;100250.53;;;14.99;39.55
35694;BME280;21812;55.536;37.664;2023-06-04T09:48:21;100261.72;;;15.22;39.12
35694;BME280;21812;55.536;37.664;2023-06-04T09:50:47;100256.31;;;15.36;38.12
35694;BME280;21812;55.536;37.664;2023-06-04T09:53:17;100246.13;;;15.64;38.84
35694;BME280;21812;55.536;37.664;2023-06-04T09:55:43;100245.25;;;15.97;39.05
35694;BME280;21812;55.536;37.664;2023-06-04T09:58:10;100241.03;;;16.15;38.12
35694;BME280;21812;55.536;37.664;2023-06-04T10:00:38;100257.50;;;16.38;37.18
35694;BME280;21812;55.536;37.664;2023-06-04T10:03:04;100242.81;;;16.34;37.75
35694;BME280;21812;55.536;37.664;2023-06-04T10:05:34;100235.06;;;16.51;37.94
35694;BME280;21812;55.536;37.664;2023-06-04T10:08:04;100253.91;;;16.90;36.97
35694;BME280;21812;55.536;37.664;2023-06-04T10:10:34;100219.06;;;17.13;36.81
35694;BME280;21812;55.536;37.664;2023-06-04T10:13:05;100250.50;;;17.70;35.07
35694;BME280;21812;55.536;37.664;2023-06-04T10:15:32;100234.50;;;17.93;35.87
35694;BME280;21812;55.536;37.664;2023-06-04T10:18:01;100212.53;;;17.46;35.06
35694;BME280;21812;55.536;37.664;2023-06-04T10:20:28;100243.50;;;17.18;35.72
35694;BME280;21812;55.536;37.664;2023-06-04T10:22:54;100241.69;;;16.87;34.67
35694;BME280;21812;55.536;37.664;2023-06-04T10:25:21;100237.50;;;16.91;34.40
35694;BME280;21812;55.536;37.664;2023-06-04T10:27:47;100242.91;;;17.16;34.73
35694;BME280;21812;55.536;37.664;2023-06-04T10:30:13;100237.72;;;17.58;32.86
35694;BME280;21812;55.536;37.664;2023-06-04T10:32:39;100229.19;;;18.17;32.35
35694;BME280;21812;55.536;37.664;2023-06-04T10:35:06;100234.44;;;18.30;31.56
35694;BME280;21812;55.536;37.664;2023-06-04T10:37:34;100222.19;;;18.58;29.83
35694;BME280;21812;55.536;37.664;2023-06-04T10:40:01;100226.47;;;18.35;30.36
35694;BME280;21812;55.536;37.664;2023-06-04T10:42:38;100215.59;;;18.54;33.38
35694;BME280;21812;55.536;37.664;2023-06-04T10:45:04;100212.66;;;18.98;32.22
35694;BME280;21812;55.536;37.664;2023-06-04T10:47:30;100227.16;;;19.27;31.10
35694;BME280;21812;55.536;37.664;2023-06-04T10:50:08;100208.31;;;19.56;32.01
35694;BME280;21812;55.536;37.664;2023-06-04T10:52:57;100217.97;;;19.75;31.00
35694;BME280;21812;55.536;37.664;2023-06-04T10:55:25;100228.56;;;19.41;31.03
35694;BME280;21812;55.536;37.664;2023-06-04T10:57:54;100228.56;;;19.18;30.98
35694;BME280;21812;55.536;37.664;2023-06-04T11:00:20;100223.97;;;19.18;31.35
35694;BME280;21812;55.536;37.664;2023-06-04T11:02:55;100222.91;;;19.07;30.37
35694;BME280;21812;55.536;37.664;2023-06-04T11:05:22;100244.75;;;18.94;31.28
35694;BME280;21812;55.536;37.664;2023-06-04T11:07:49;100228.88;;;18.55;31.16
35694;BME280;21812;55.536;37.664;2023-06-04T11:10:16;100207.94;;;18.21;31.12
35694;BME280;21812;55.536;37.664;2023-06-04T11:12:48;100225.94;;;18.27;31.89
35694;BME280;21812;55.536;37.664;2023-06-04T11:15:16;100244.66;;;18.10;31.51
35694;BME280;21812;55.536;37.664;2023-06-04T11:17:49;100237.59;;;17.72;32.12
35694;BME280;21812;55.536;37.664;2023-06-04T11:20:18;100246.78;;;17.46;33.01
35694;BME280;21812;55.536;37.664;2023-06-04T11:22:58;100213.06;;;17.11;33.07
35694;BME280;21812;55.536;37.664;2023-06-04T11:25:29;100246.31;;;17.05;33.48
35694;BME280;21812;55.536;37.664;2023-06-04T11:27:56;100243.44;;;17.00;33.64
35694;BME280;21812;55.536;37.664;2023-06-04T11:30:23;100231.50;;;17.14;32.65
35694;BME280;21812;55.536;37.664;2023-06-04T11:32:50;100228.75;;;18.20;32.09
35694;BME280;21812;55.536;37.664;2023-06-04T11:35:25;100228.28;;;18.23;31.96
35694;BME280;21812;55.536;37.664;2023-06-04T11:37:55;100212.88;;;17.93;31.85
35694;BME280;21812;55.536;37.664;2023-06-04T11:40:21;100233.03;;;17.91;31.55
35694;BME280;21812;55.536;37.664;2023-06-04T11:42:48;100227.72;;;18.03;32.67
35694;BME280;21812;55.536;37.664;2023-06-04T11:45:15;100228.44;;;18.28;32.63
35694;BME280;21812;55.536;37.664;2023-06-04T11:47:45;100216.00;;;18.09;32.55
35694;BME280;21812;55.536;37.664;2023-06-04T11:50:12;100227.91;;;18.20;32.94
35694;BME280;21812;55.536;37.664;2023-06-04T11:52:38;100225.97;;;18.08;33.91
35694;BME280;21812;55.536;37.664;2023-06-04T11:55:07;100228.56;;;18.03;32.67
35694;BME280;21812;55.536;37.664;2023-06-04T11:57:33;100231.97;;;18.71;31.73
35694;BME280;21812;55.536;37.664;2023-06-04T12:00:00;100229.91;;;18.85;31.05
35694;BME280;21812;55.536;37.664;2023-06-04T12:02:26;100238.66;;;18.56;30.40
35694;BME280;21812;55.536;37.664;2023-06-04T12:04:51;100236.22;;;18.36;30.48
35694;BME280;21812;55.536;37.664;2023-06-04T12:07:21;100232.66;;;18.06;31.45
35694;BME280;21812;55.536;37.664;2023-06-04T12:09:49;100242.56;;;17.75;31.47
35694;BME280;21812;55.536;37.664;2023-06-04T12:12:21;100238.63;;;17.52;32.00
35694;BME280;21812;55.536;37.664;2023-06-04T12:14:56;100229.41;;;17.16;32.26
35694;BME280;21812;55.536;37.664;2023-06-04T12:17:22;100252.06;;;17.15;32.91
35694;BME280;21812;55.536;37.664;2023-06-04T12:19:51;100261.00;;;17.09;33.39
35694;BME280;21812;55.536;37.664;2023-06-04T12:22:17;100249.47;;;17.02;33.87
35694;BME280;21812;55.536;37.664;2023-06-04T12:24:50;100252.03;;;16.90;34.01
35694;BME280;21812;55.536;37.664;2023-06-04T12:27:19;100245.03;;;16.83;34.47
35694;BME280;21812;55.536;37.664;2023-06-04T12:30:00;100250.50;;;17.01;33.78
35694;BME280;21812;55.536;37.664;2023-06-04T12:32:27;100253.63;;;16.98;33.87
35694;BME280;21812;55.536;37.664;2023-06-04T12:34:53;100257.66;;;16.89;33.85
35694;BME280;21812;55.536;37.664;2023-06-04T12:37:20;100255.59;;;16.84;33.96
35694;BME280;21812;55.536;37.664;2023-06-04T12:39:46;100254.09;;;16.95;33.23
35694;BME280;21812;55.536;37.664;2023-06-04T12:42:13;100254.41;;;17.05;32.35
35694;BME280;21812;55.536;37.664;2023-06-04T12:44:39;100249.13;;;16.92;32.93
35694;BME280;21812;55.536;37.664;2023-06-04T12:47:06;100246.25;;;16.87;33.14
35694;BME280;21812;55.536;37.664;2023-06-04T12:49:32;100255.59;;;16.84;33.45
35694;BME280;21812;55.536;37.664;2023-06-04T12:51:58;100248.38;;;16.71;33.28
35694;BME280;21812;55.536;37.664;2023-06-04T12:54:24;100253.03;;;16.64;33.26